CheckWX is a tool to help pilots better visualize weather data.  It is not intended as a substitute for an official pre-flight weather briefing.

05:35:25 UTC

KACK METAR
Nantucket Memorial Airport
Nantucket, Massachusetts, USA
Current

42 mins ago

KACK 200453Z AUTO 33008KT 10SM CLR M03/M14 A3054 RMK AO2 SLP340 T10331144 410111067
Observed
Feb-20 @ 04:53 UTC
Wind
  • 330° at 8 KTS
Visibility
16,093 meters
Flight Rules
VFR
Cloud Levels
  • Clear skies
Temperature
-3°C / 27°F
Dewpoint
-14°C / 7°F
Humidity
43%
Altimeter
30.54" Hg
Pressure
1034 hPa
Previous

2 hours ago

KACK 200353Z AUTO 33012KT 10SM CLR M02/M14 A3053 RMK AO2 SLP339 T10221144
Observed
Feb-20 @ 03:53 UTC
Wind
  • 330° at 12 KTS
Visibility
16,093 meters
Flight Rules
VFR
Cloud Levels
  • Clear skies
Temperature
-2°C / 28°F
Dewpoint
-14°C / 7°F
Humidity
40%
Altimeter
30.53" Hg
Pressure
1033.9 hPa
Previous

3 hours ago

KACK 200253Z AUTO 32013KT 10SM CLR M02/M13 A3054 RMK AO2 SLP340 T10221128 53018
Observed
Feb-20 @ 02:53 UTC
Wind
  • 320° at 13 KTS
Visibility
16,093 meters
Flight Rules
VFR
Cloud Levels
  • Clear skies
Temperature
-2°C / 28°F
Dewpoint
-13°C / 9°F
Humidity
43%
Altimeter
30.54" Hg
Pressure
1034 hPa